Time;durP1;ratioP1;P1;durP2;ratioP2;P2;SDS_P1;SDS_P2;PMS_P1;PMS_P2;Temp;Humidity;BMP_temperature;BMP_pressure;BME280_temperature;BME280_humidity;BME280_pressure;Samples;Min_cycle;Max_cycle;Signal;HPM_P1;HPM_P2
2023/06/19 00:00:55;;;;;;;19.92;16.05;;;;;;;19.69;100.00;98190.25;4838851;29;20052;-84
2023/06/19 00:03:39;;;;;;;26.95;18.23;;;;;;;19.64;100.00;98179.59;4834671;29;20061;-85
2023/06/19 00:06:25;;;;;;;32.08;20.73;;;;;;;19.57;100.00;98182.59;4823278;29;20076;-83
2023/06/19 00:09:10;;;;;;;29.13;20.70;;;;;;;19.55;100.00;98171.41;4839790;29;20465;-84
2023/06/19 00:11:55;;;;;;;29.27;20.85;;;;;;;19.44;100.00;98173.31;4826007;29;20073;-84
2023/06/19 00:14:39;;;;;;;28.13;20.85;;;;;;;19.51;100.00;98168.50;4837916;29;20052;-83
2023/06/19 00:17:25;;;;;;;24.23;19.00;;;;;;;19.41;100.00;98155.25;4828405;29;20053;-83
2023/06/19 00:20:10;;;;;;;24.08;18.13;;;;;;;19.39;100.00;98144.09;4824599;29;20538;-84
2023/06/19 00:22:54;;;;;;;24.35;17.60;;;;;;;19.63;100.00;98138.09;4834437;29;20106;-84
2023/06/19 00:25:38;;;;;;;26.75;19.60;;;;;;;19.52;100.00;98143.47;4834816;29;20065;-83
2023/06/19 00:28:22;;;;;;;30.17;21.02;;;;;;;19.38;100.00;98142.50;4837768;29;20135;-84
2023/06/19 00:31:06;;;;;;;25.95;19.20;;;;;;;19.37;100.00;98133.72;4824327;29;20142;-85
2023/06/19 00:33:51;;;;;;;24.83;18.98;;;;;;;19.40;100.00;98145.66;4838701;29;20089;-83
2023/06/19 00:36:40;;;;;;;28.70;18.05;;;;;;;19.39;100.00;98142.22;4839214;29;20105;-84
2023/06/19 00:39:27;;;;;;;31.30;22.30;;;;;;;19.30;100.00;98143.09;4836439;29;20045;-85
2023/06/19 00:42:14;;;;;;;32.38;21.42;;;;;;;19.39;100.00;98144.91;4825667;29;20118;-83
2023/06/19 00:44:59;;;;;;;26.15;19.63;;;;;;;19.41;100.00;98148.06;4837819;29;20114;-83
2023/06/19 00:47:43;;;;;;;25.05;18.83;;;;;;;19.20;100.00;98146.59;4839558;29;20069;-84
2023/06/19 00:50:31;;;;;;;23.52;18.73;;;;;;;19.23;100.00;98154.78;4837339;29;20057;-84
2023/06/19 00:53:19;;;;;;;22.60;17.40;;;;;;;19.26;100.00;98151.63;4839305;29;20125;-85
2023/06/19 00:56:03;;;;;;;28.98;21.35;;;;;;;19.20;100.00;98155.34;4838428;29;20125;-84
2023/06/19 00:58:48;;;;;;;34.03;25.23;;;;;;;19.14;100.00;98159.09;4825220;29;20045;-84
2023/06/19 01:01:32;;;;;;;44.05;29.95;;;;;;;19.13;100.00;98162.84;4835406;29;20362;-85
2023/06/19 01:04:16;;;;;;;45.13;29.92;;;;;;;19.15;100.00;98152.72;4839259;29;20049;-85
2023/06/19 01:07:13;;;;;;;45.33;28.20;;;;;;;19.18;100.00;98159.38;4839088;29;20515;-86
2023/06/19 01:10:04;;;;;;;47.72;30.60;;;;;;;19.15;100.00;98154.56;4838371;29;20564;-85
2023/06/19 01:13:10;;;;;;;42.50;27.65;;;;;;;19.13;100.00;98154.84;4838156;29;20061;-85
2023/06/19 01:15:56;;;;;;;45.15;29.33;;;;;;;19.04;100.00;98167.13;4825242;29;20040;-85
2023/06/19 01:18:41;;;;;;;44.90;30.45;;;;;;;19.04;100.00;98169.78;4839259;29;20049;-85
2023/06/19 01:21:26;;;;;;;50.72;31.45;;;;;;;18.86;100.00;98174.59;4825097;29;20053;-85
2023/06/19 01:24:10;;;;;;;49.85;31.75;;;;;;;18.86;100.00;98163.94;4823852;29;20413;-85
2023/06/19 01:26:55;;;;;;;43.42;28.40;;;;;;;18.84;100.00;98160.75;4826006;29;20071;-84
2023/06/19 01:29:41;;;;;;;36.40;24.80;;;;;;;19.03;100.00;98168.19;4840725;29;20056;-83
2023/06/19 01:32:34;;;;;;;36.75;25.73;;;;;;;18.96;100.00;98165.78;4827518;29;20088;-83
2023/06/19 01:35:22;;;;;;;30.85;21.92;;;;;;;18.98;100.00;98177.78;4841962;29;20049;-84
2023/06/19 01:38:07;;;;;;;34.60;22.25;;;;;;;18.92;100.00;98178.84;4841240;29;20049;-84
2023/06/19 01:40:57;;;;;;;28.80;19.38;;;;;;;19.01;100.00;98165.81;4821225;29;20103;-83
2023/06/19 01:43:42;;;;;;;28.02;17.85;;;;;;;19.01;100.00;98171.13;4821767;29;20049;-84
2023/06/19 01:46:26;;;;;;;37.08;23.58;;;;;;;18.95;100.00;98172.16;4820636;29;20504;-84
2023/06/19 01:49:10;;;;;;;34.22;23.13;;;;;;;18.92;100.00;98192.13;4821238;29;20091;-84
2023/06/19 01:51:55;;;;;;;34.95;24.00;;;;;;;18.88;100.00;98187.63;4809687;29;20206;-83
2023/06/19 01:54:40;;;;;;;34.75;23.38;;;;;;;18.78;100.00;98183.13;4822695;29;20045;-83
2023/06/19 01:57:24;;;;;;;31.17;21.80;;;;;;;18.78;100.00;98188.44;4821924;29;20138;-83
2023/06/19 02:00:10;;;;;;;30.85;22.15;;;;;;;18.78;100.00;98183.13;4821886;29;20099;-84
2023/06/19 02:02:54;;;;;;;33.90;23.48;;;;;;;18.73;100.00;98185.81;4823170;29;20045;-83
2023/06/19 02:05:39;;;;;;;34.72;25.15;;;;;;;18.51;100.00;98186.91;4823131;29;20095;-84
2023/06/19 02:08:23;;;;;;;43.03;27.95;;;;;;;18.54;100.00;98179.16;4822018;29;20111;-84
2023/06/19 02:11:08;;;;;;;40.13;27.50;;;;;;;18.35;100.00;98170.16;4822593;29;20045;-84
2023/06/19 02:13:52;;;;;;;40.50;28.52;;;;;;;18.42;100.00;98168.81;4819545;29;20578;-84
2023/06/19 02:16:36;;;;;;;39.72;27.80;;;;;;;18.27;100.00;98168.84;4820366;29;20508;-84
2023/06/19 02:19:20;;;;;;;42.17;27.83;;;;;;;18.23;100.00;98168.59;4831698;29;20128;-84
2023/06/19 02:22:06;;;;;;;40.95;28.27;;;;;;;18.24;100.00;98166.72;4823003;29;20107;-83
2023/06/19 02:24:50;;;;;;;45.75;30.27;;;;;;;18.15;100.00;98155.03;4818702;29;20045;-84
2023/06/19 02:27:34;;;;;;;36.72;26.73;;;;;;;18.15;100.00;98155.03;4832663;29;20413;-83
2023/06/19 02:30:18;;;;;;;35.92;25.17;;;;;;;18.13;100.00;98152.63;4830193;29;20514;-84
2023/06/19 02:33:02;;;;;;;39.25;25.88;;;;;;;18.15;100.00;98155.81;4821457;29;20126;-86
2023/06/19 02:35:46;;;;;;;30.92;22.92;;;;;;;18.04;100.00;98149.72;4821713;29;20046;-84
2023/06/19 02:38:30;;;;;;;27.77;22.27;;;;;;;18.10;100.00;98159.31;4821230;29;20049;-83
2023/06/19 02:41:14;;;;;;;29.15;22.15;;;;;;;18.31;100.00;98172.56;4829786;29;20092;-83
2023/06/19 02:43:58;;;;;;;29.27;21.98;;;;;;;18.29;100.00;98169.38;4819461;29;20080;-84
2023/06/19 02:46:42;;;;;;;26.02;20.38;;;;;;;18.25;100.00;98170.97;4818771;29;20053;-83
2023/06/19 02:49:26;;;;;;;24.85;19.15;;;;;;;18.22;100.00;98174.16;4818834;29;20077;-83
2023/06/19 02:52:10;;;;;;;23.15;18.52;;;;;;;18.23;100.00;98173.09;4822317;29;20071;-83
2023/06/19 02:54:54;;;;;;;21.85;17.38;;;;;;;18.28;100.00;98170.44;4822977;29;20059;-83
2023/06/19 02:57:38;;;;;;;22.13;18.70;;;;;;;17.97;100.00;98165.09;4832977;29;20087;-83
2023/06/19 03:00:23;;;;;;;23.83;18.45;;;;;;;18.04;100.00;98168.31;4818145;29;20057;-83
2023/06/19 03:03:06;;;;;;;22.83;18.13;;;;;;;18.04;100.00;98170.97;4822480;29;20049;-84
2023/06/19 03:05:51;;;;;;;23.90;18.20;;;;;;;18.06;100.00;98176.03;4825812;29;20540;-83
2023/06/19 03:08:36;;;;;;;24.52;19.48;;;;;;;18.10;100.00;98175.22;4819122;29;20187;-83
2023/06/19 03:11:20;;;;;;;22.27;17.33;;;;;;;17.84;100.00;98175.16;4830824;29;20045;-83
2023/06/19 03:14:07;;;;;;;23.00;18.75;;;;;;;18.17;100.00;98190.09;4822075;29;20045;-84
2023/06/19 03:16:51;;;;;;;26.52;17.10;;;;;;;18.09;100.00;98189.56;4812472;29;20061;-84
2023/06/19 03:19:35;;;;;;;25.17;18.00;;;;;;;17.97;100.00;98187.13;4822068;29;20509;-83
2023/06/19 03:22:21;;;;;;;23.23;18.13;;;;;;;18.05;100.00;98188.47;4822305;29;20042;-84
2023/06/19 03:25:06;;;;;;;25.98;18.38;;;;;;;18.00;100.00;98191.13;4828516;29;20057;-84
2023/06/19 03:27:50;;;;;;;24.73;18.38;;;;;;;17.80;100.00;98197.22;4813905;29;20098;-83
2023/06/19 03:30:34;;;;;;;27.45;19.77;;;;;;;17.81;100.00;98198.81;4818846;29;20053;-83
2023/06/19 03:33:18;;;;;;;25.90;17.42;;;;;;;17.77;100.00;98187.91;4817256;29;20065;-82
2023/06/19 03:36:05;;;;;;;25.15;17.45;;;;;;;17.82;100.00;98193.22;4821777;29;20121;-84
2023/06/19 03:38:49;;;;;;;23.90;18.08;;;;;;;17.84;100.00;98193.75;4820969;29;20087;-84
2023/06/19 03:41:33;;;;;;;25.08;17.02;;;;;;;17.85;100.00;98200.66;4818652;29;20073;-85
2023/06/19 03:44:17;;;;;;;22.13;16.20;;;;;;;17.91;100.00;98205.97;4816795;29;20113;-86
2023/06/19 03:47:01;;;;;;;23.30;15.93;;;;;;;17.83;100.00;98205.41;4821485;29;20057;-83
2023/06/19 03:49:45;;;;;;;20.52;14.15;;;;;;;17.91;100.00;98208.63;4820247;29;20088;-85
2023/06/19 03:52:29;;;;;;;21.15;12.95;;;;;;;17.85;100.00;98211.25;4822122;29;20075;-83
2023/06/19 03:55:13;;;;;;;18.83;13.15;;;;;;;17.84;100.00;98214.97;4821265;29;20046;-83
2023/06/19 03:57:57;;;;;;;23.05;14.02;;;;;;;17.77;100.00;98216.28;4819647;29;20041;-84
2023/06/19 04:00:41;;;;;;;17.50;12.77;;;;;;;17.85;100.00;98215.78;4820940;29;20090;-83
2023/06/19 04:03:25;;;;;;;17.73;12.88;;;;;;;17.85;100.00;98226.41;4820424;29;20145;-84
2023/06/19 04:06:09;;;;;;;17.73;12.65;;;;;;;17.84;100.00;98233.56;4821800;29;20046;-83
2023/06/19 04:08:53;;;;;;;16.05;12.27;;;;;;;17.83;100.00;98229.31;4819735;29;20565;-83
2023/06/19 04:11:37;;;;;;;19.70;13.43;;;;;;;17.70;100.00;98235.13;4820576;29;20516;-84
2023/06/19 04:14:22;;;;;;;20.15;13.38;;;;;;;17.62;100.00;98230.31;4814819;29;20090;-84
2023/06/19 04:17:06;;;;;;;20.65;13.43;;;;;;;17.70;100.00;98235.13;4820779;29;20409;-85
2023/06/19 04:19:50;;;;;;;17.33;12.80;;;;;;;17.77;100.00;98232.22;4811296;29;20178;-84
2023/06/19 04:22:34;;;;;;;18.90;14.23;;;;;;;17.88;100.00;98239.16;4821787;29;20103;-84
2023/06/19 04:25:19;;;;;;;20.25;14.68;;;;;;;17.70;100.00;98238.56;4813461;29;20097;-85
2023/06/19 04:28:03;;;;;;;22.33;14.93;;;;;;;17.85;100.00;98243.13;4820917;29;20053;-84
2023/06/19 04:30:47;;;;;;;20.60;15.57;;;;;;;17.85;100.00;98245.78;4820256;29;20089;-85
2023/06/19 04:33:32;;;;;;;21.35;15.27;;;;;;;17.95;100.00;98237.03;4814979;29;20050;-84
2023/06/19 04:36:16;;;;;;;21.38;15.00;;;;;;;17.93;100.00;98233.06;4820314;29;20083;-86
2023/06/19 04:39:00;;;;;;;20.85;16.17;;;;;;;18.01;100.00;98234.41;4814739;29;20049;-85
2023/06/19 04:41:45;;;;;;;19.23;14.75;;;;;;;17.95;100.00;98236.25;4818555;29;20069;-84
2023/06/19 04:44:33;;;;;;;23.77;16.48;;;;;;;17.89;100.00;98245.28;4818471;29;20049;-84
2023/06/19 04:47:19;;;;;;;23.92;16.83;;;;;;;17.83;100.00;98244.47;4817202;29;20073;-85
2023/06/19 04:50:04;;;;;;;21.65;15.77;;;;;;;17.88;100.00;98247.13;4817717;29;20069;-85
2023/06/19 04:52:50;;;;;;;22.70;17.20;;;;;;;17.97;100.00;98258.03;4832880;29;20041;-84
2023/06/19 04:55:34;;;;;;;25.35;16.42;;;;;;;18.10;100.00;98264.72;4817750;29;20049;-83
2023/06/19 04:58:18;;;;;;;23.45;17.17;;;;;;;18.15;100.00;98261.28;4819391;29;20111;-85
2023/06/19 05:01:02;;;;;;;21.08;15.63;;;;;;;18.17;100.00;98264.47;4812028;29;20397;-83
2023/06/19 05:03:46;;;;;;;21.50;16.17;;;;;;;18.08;100.00;98261.53;4824281;29;20057;-83
2023/06/19 05:06:29;;;;;;;;;;;;;;;18.20;100.00;98267.41;4820533;29;20065;-83
2023/06/19 05:09:14;;;;;;;24.23;16.33;;;;;;;18.29;100.00;98262.38;4831453;29;19939;-83
2023/06/19 05:11:57;;;;;;;24.27;16.30;;;;;;;18.22;100.00;98259.97;4823467;29;20566;-85
2023/06/19 05:14:41;;;;;;;24.85;16.23;;;;;;;18.49;100.00;98266.88;4824206;29;20088;-84
2023/06/19 05:17:25;;;;;;;28.77;17.50;;;;;;;18.57;100.00;98273.53;4819047;29;20573;-84
2023/06/19 05:20:11;;;;;;;21.60;17.60;;;;;;;18.47;100.00;98274.31;4822359;29;20053;-84
2023/06/19 05:22:55;;;;;;;24.20;18.55;;;;;;;18.62;100.00;98272.72;4823736;29;20078;-84
2023/06/19 05:25:39;;;;;;;24.45;18.20;;;;;;;18.68;100.00;98275.13;4823939;29;20053;-83
2023/06/19 05:28:23;;;;;;;25.60;19.30;;;;;;;18.51;100.00;98275.38;4822861;29;20089;-83
2023/06/19 05:31:07;;;;;;;26.55;18.55;;;;;;;18.50;100.00;98278.31;4820158;29;20060;-85
2023/06/19 05:33:54;;;;;;;26.95;18.95;;;;;;;18.59;100.00;98287.34;4815332;29;20058;-83
2023/06/19 05:36:41;;;;;;;26.42;18.17;;;;;;;18.56;100.00;98287.88;4823268;29;20069;-85
2023/06/19 05:39:25;;;;;;;27.17;19.10;;;;;;;18.79;100.00;98291.88;4818923;29;20053;-82
2023/06/19 05:42:10;;;;;;;25.98;18.20;;;;;;;18.66;100.00;98300.38;4817488;29;20073;-82
2023/06/19 05:44:54;;;;;;;25.60;17.42;;;;;;;18.81;100.00;98288.91;4822560;29;20045;-82
2023/06/19 05:47:38;;;;;;;24.55;17.55;;;;;;;18.77;100.00;98293.19;4821626;29;20553;-84
2023/06/19 05:50:22;;;;;;;24.38;16.13;;;;;;;18.76;100.00;98296.91;4821580;29;20126;-83
2023/06/19 05:53:06;;;;;;;22.73;15.82;;;;;;;18.97;100.00;98297.69;4828099;29;20062;-83
2023/06/19 05:55:50;;;;;;;21.10;14.88;;;;;;;18.97;100.00;98301.13;4821841;29;20053;-85
2023/06/19 05:58:34;;;;;;;19.58;14.25;;;;;;;19.04;100.00;98295.59;4819018;29;20084;-85
2023/06/19 06:01:18;;;;;;;21.00;14.93;;;;;;;19.09;100.00;98300.09;4816364;29;20053;-85
2023/06/19 06:04:03;;;;;;;25.88;15.07;;;;;;;19.20;100.00;98295.56;4820655;29;20106;-85
2023/06/19 06:06:47;;;;;;;21.30;15.18;;;;;;;19.16;100.00;98297.13;4818214;29;20150;-84
2023/06/19 06:09:32;;;;;;;23.30;14.73;;;;;;;19.30;100.00;98302.72;4823347;29;20428;-85
2023/06/19 06:12:17;;;;;;;20.67;14.60;;;;;;;19.15;100.00;98304.34;4816937;29;20144;-85
2023/06/19 06:15:02;;;;;;;22.70;14.85;;;;;;;19.33;100.00;98304.84;4833261;29;20049;-85
2023/06/19 06:17:46;;;;;;;18.58;14.45;;;;;;;19.49;100.00;98308.25;4819846;29;20098;-85
2023/06/19 06:20:31;;;;;;;19.90;13.95;;;;;;;19.68;100.00;98311.13;4820245;29;20103;-84
2023/06/19 06:23:15;;;;;;;19.50;13.57;;;;;;;19.74;100.00;98310.00;4817985;29;20134;-84
2023/06/19 06:26:02;;;;;;;20.77;15.38;;;;;;;19.61;100.00;98310.59;4833398;29;20111;-84
2023/06/19 06:28:46;;;;;;;18.77;13.77;;;;;;;19.79;100.00;98317.19;4834900;29;20060;-84
2023/06/19 06:31:30;;;;;;;19.42;13.65;;;;;;;19.71;100.00;98315.88;4821358;29;20102;-83
2023/06/19 06:34:14;;;;;;;19.88;14.15;;;;;;;19.99;100.00;98316.31;4817125;29;20049;-83
2023/06/19 06:36:59;;;;;;;18.92;13.13;;;;;;;20.09;100.00;98324.25;4819333;29;20088;-83
2023/06/19 06:39:43;;;;;;;20.25;14.30;;;;;;;19.93;100.00;98322.75;4820185;29;20072;-82
2023/06/19 06:42:28;;;;;;;17.52;13.50;;;;;;;20.03;100.00;98322.69;4823429;29;20061;-88
2023/06/19 06:45:12;;;;;;;15.77;12.70;;;;;;;20.17;100.00;98328.22;4814652;29;20053;-84
2023/06/19 06:47:56;;;;;;;17.88;12.75;;;;;;;20.07;100.00;98334.41;4821224;29;20054;-83
2023/06/19 06:50:41;;;;;;;19.58;12.82;;;;;;;20.15;100.00;98321.56;4819534;29;20122;-84
2023/06/19 06:53:28;;;;;;;29.00;13.55;;;;;;;19.90;100.00;98336.59;4815957;29;20049;-82
2023/06/19 06:56:12;;;;;;;20.55;13.63;;;;;;;20.08;100.00;98341.31;4823018;29;20042;-82
2023/06/19 06:58:56;;;;;;;20.65;13.63;;;;;;;20.24;100.00;98325.22;4809379;29;20697;-85
2023/06/19 07:01:40;;;;;;;20.48;13.05;;;;;;;20.17;100.00;98335.41;4832078;29;20056;-84
2023/06/19 07:04:24;;;;;;;16.30;12.52;;;;;;;20.43;100.00;98343.22;4814205;29;20400;-83
2023/06/19 07:07:08;;;;;;;18.23;11.82;;;;;;;20.46;100.00;98345.38;4818167;29;20049;-84
2023/06/19 07:09:53;;;;;;;19.40;13.13;;;;;;;20.30;100.00;98342.78;4822650;29;20410;-84
2023/06/19 07:12:52;;;;;;;17.65;10.80;;;;;;;20.25;100.00;98330.28;4816689;29;20052;-83
2023/06/19 07:15:37;;;;;;;15.63;11.13;;;;;;;20.19;100.00;98354.56;4815730;29;20052;-82
2023/06/19 07:18:21;;;;;;;17.50;11.35;;;;;;;20.44;100.00;98345.63;4816439;29;20065;-85
2023/06/19 07:21:11;;;;;;;20.95;11.82;;;;;;;20.43;100.00;98348.56;4819937;29;20212;-89
2023/06/19 07:23:56;;;;;;;18.02;11.60;;;;;;;20.83;100.00;98344.84;4810345;29;20057;-86
2023/06/19 07:26:40;;;;;;;18.98;11.10;;;;;;;20.58;100.00;98353.81;4819347;29;20045;-85
2023/06/19 07:29:25;;;;;;;23.13;10.55;;;;;;;20.77;100.00;98345.13;4815627;29;20076;-87
2023/06/19 07:32:10;;;;;;;19.58;11.73;;;;;;;21.36;100.00;98342.50;4816554;29;20104;-81
2023/06/19 07:34:54;;;;;;;18.70;10.50;;;;;;;21.25;100.00;98345.28;4820798;29;20053;-83
2023/06/19 07:37:38;;;;;;;23.50;10.13;;;;;;;20.47;100.00;98346.97;4822619;29;20073;-82
2023/06/19 07:40:22;;;;;;;16.63;10.35;;;;;;;21.18;100.00;98350.13;4819042;29;20202;-81
2023/06/19 07:43:06;;;;;;;18.38;9.20;;;;;;;21.08;100.00;98350.25;4823509;29;20098;-83
2023/06/19 07:45:50;;;;;;;15.68;9.10;;;;;;;21.40;100.00;98349.66;4838533;29;20133;-85
2023/06/19 07:48:34;;;;;;;17.23;9.68;;;;;;;21.62;100.00;98352.91;4838815;29;20106;-84
2023/06/19 07:51:18;;;;;;;20.30;10.07;;;;;;;21.63;100.00;98355.28;4839978;29;20091;-85
2023/06/19 07:54:02;;;;;;;11.88;9.15;;;;;;;21.94;100.00;98357.63;4840616;29;20041;-85
2023/06/19 07:56:46;;;;;;;16.50;10.13;;;;;;;21.67;100.00;98358.22;4825854;29;20052;-86
2023/06/19 07:59:30;;;;;;;20.02;9.77;;;;;;;22.01;100.00;98359.97;4840942;29;20049;-84
2023/06/19 08:02:14;;;;;;;11.48;9.32;;;;;;;21.67;100.00;98360.91;4824699;29;20111;-84
2023/06/19 08:04:58;;;;;;;17.55;10.95;;;;;;;22.03;100.00;98355.13;4826775;29;20624;-83
2023/06/19 08:07:42;;;;;;;14.80;9.82;;;;;;;21.96;100.00;98352.00;4825432;29;20048;-83
2023/06/19 08:10:26;;;;;;;11.93;9.35;;;;;;;22.32;100.00;98356.09;4841173;29;20070;-90
2023/06/19 08:13:11;;;;;;;10.20;8.40;;;;;;;22.22;100.00;98355.13;4842612;29;20185;-83
2023/06/19 08:15:55;;;;;;;15.07;9.52;;;;;;;22.49;100.00;98356.38;4836759;29;20048;-85
2023/06/19 08:18:39;;;;;;;14.52;8.38;;;;;;;22.43;100.00;98354.06;4839869;29;20098;-86
2023/06/19 08:21:24;;;;;;;15.15;9.05;;;;;;;22.52;100.00;98355.00;4839432;29;20088;-86
2023/06/19 08:24:08;;;;;;;13.43;8.60;;;;;;;22.56;100.00;98358.69;4838884;29;20056;-84
2023/06/19 08:26:52;;;;;;;12.98;9.05;;;;;;;22.42;100.00;98363.94;4838005;29;20057;-82
2023/06/19 08:29:36;;;;;;;12.18;8.73;;;;;;;22.59;100.00;98352.75;4841208;29;20053;-84
2023/06/19 08:32:20;;;;;;;13.45;7.90;;;;;;;22.48;100.00;98367.38;4828835;29;20084;-85
2023/06/19 08:35:05;;;;;;;10.95;8.10;;;;;;;22.78;100.00;98360.75;4829263;29;20405;-84
2023/06/19 08:37:49;;;;;;;10.88;7.85;;;;;;;22.74;100.00;98358.94;4844487;29;20507;-85
2023/06/19 08:40:33;;;;;;;11.15;7.45;;;;;;;22.93;100.00;98346.31;4845669;29;20057;-85
2023/06/19 08:43:17;;;;;;;11.00;7.95;;;;;;;23.03;100.00;98361.41;4845719;29;20094;-85
2023/06/19 08:46:11;;;;;;;10.98;8.50;;;;;;;23.07;100.00;98372.34;4830122;29;20403;-85
2023/06/19 08:48:56;;;;;;;10.73;7.90;;;;;;;22.71;100.00;98364.88;4830760;29;20126;-85
2023/06/19 08:51:40;;;;;;;14.45;8.00;;;;;;;22.73;100.00;98362.72;4831785;29;20052;-84
2023/06/19 08:54:25;;;;;;;15.98;8.75;;;;;;;22.53;100.00;98359.25;4834395;29;20049;-84
2023/06/19 08:57:11;;;;;;;11.40;8.40;;;;;;;22.74;100.00;98354.41;4831235;29;20080;-85
2023/06/19 08:59:54;;;;;;;11.55;8.02;;;;;;;22.30;100.00;98364.38;4844480;29;20072;-84
2023/06/19 09:02:46;;;;;;;13.43;8.32;;;;;;;22.54;100.00;98371.56;4844749;29;20052;-85
2023/06/19 09:05:30;;;;;;;11.52;7.57;;;;;;;22.60;100.00;98377.63;4844693;29;20048;-84
2023/06/19 09:08:15;;;;;;;12.63;7.82;;;;;;;23.13;100.00;98368.47;4845371;29;20115;-85
2023/06/19 09:11:00;;;;;;;9.32;7.45;;;;;;;23.60;100.00;98384.53;4845017;29;20049;-84
2023/06/19 09:13:55;;;;;;;11.40;7.68;;;;;;;23.70;100.00;98378.19;4830784;29;20056;-84
2023/06/19 09:16:41;;;;;;;12.23;7.45;;;;;;;24.23;100.00;98381.44;4843981;29;20515;-86
2023/06/19 09:19:25;;;;;;;13.07;7.25;;;;;;;24.21;100.00;98381.72;4844745;29;20516;-85
2023/06/19 09:22:10;;;;;;;11.68;6.85;;;;;;;24.66;100.00;98381.00;4844907;29;20182;-84
2023/06/19 09:24:59;;;;;;;10.02;7.25;;;;;;;24.73;100.00;98390.50;4839955;29;20045;-86
2023/06/19 09:27:44;;;;;;;11.30;6.93;;;;;;;24.84;100.00;98397.28;4844553;29;20084;-84
2023/06/19 09:30:28;;;;;;;9.77;6.82;;;;;;;24.98;100.00;98396.41;4830721;29;20098;-84
2023/06/19 09:33:12;;;;;;;9.90;7.22;;;;;;;25.65;100.00;98386.66;4844619;29;20064;-86
2023/06/19 09:35:58;;;;;;;8.63;6.30;;;;;;;26.10;97.02;98397.19;4830479;29;20088;-86
2023/06/19 09:38:42;;;;;;;9.40;6.47;;;;;;;26.19;92.25;98399.16;4839451;29;20049;-85
2023/06/19 09:41:26;;;;;;;9.07;6.63;;;;;;;26.54;92.83;98399.19;4843049;29;20053;-84
2023/06/19 09:44:12;;;;;;;7.22;6.43;;;;;;;26.43;89.99;98411.38;4844428;29;20088;-85
2023/06/19 09:46:59;;;;;;;9.60;5.45;;;;;;;26.24;89.40;98401.69;4843894;29;20049;-85
2023/06/19 09:49:49;;;;;;;9.55;6.30;;;;;;;26.15;88.40;98400.88;4841841;29;20106;-85
2023/06/19 09:52:34;;;;;;;7.28;6.15;;;;;;;26.06;88.60;98406.22;4844173;29;20440;-85
2023/06/19 09:55:19;;;;;;;8.43;5.80;;;;;;;25.71;90.05;98401.53;4842075;29;20436;-83
2023/06/19 09:58:05;;;;;;;10.68;6.10;;;;;;;25.69;90.80;98403.75;4843893;29;20101;-85
2023/06/19 10:00:50;;;;;;;9.25;5.30;;;;;;;25.88;91.84;98391.94;4829760;29;20456;-85
2023/06/19 10:03:36;;;;;;;6.93;5.38;;;;;;;26.26;87.72;98407.53;4840397;29;20522;-84
2023/06/19 10:06:22;;;;;;;8.60;6.28;;;;;;;26.14;87.04;98401.94;4843728;29;20409;-84
2023/06/19 10:09:09;;;;;;;8.98;6.20;;;;;;;26.24;85.42;98407.06;4843832;29;20517;-86
2023/06/19 10:11:54;;;;;;;9.07;5.88;;;;;;;26.01;84.94;98415.22;4840473;29;20092;-84
2023/06/19 10:14:47;;;;;;;11.25;5.80;;;;;;;25.55;84.57;98408.41;4843449;29;20512;-85
2023/06/19 10:17:31;;;;;;;9.65;5.68;;;;;;;25.55;85.20;98409.22;4841793;29;20048;-85
2023/06/19 10:20:22;;;;;;;8.20;5.90;;;;;;;25.10;84.83;98402.81;4842290;29;20509;-85
2023/06/19 10:23:11;;;;;;;9.25;5.85;;;;;;;25.23;83.96;98419.94;4843301;29;20052;-85
2023/06/19 10:26:00;;;;;;;9.15;6.40;;;;;;;25.36;85.67;98422.88;4843465;29;20519;-85
2023/06/19 10:28:48;;;;;;;11.25;5.82;;;;;;;25.10;85.59;98418.13;4839048;29;20084;-85
2023/06/19 10:31:32;;;;;;;10.85;6.78;;;;;;;25.24;86.52;98418.03;4842875;29;20048;-84
2023/06/19 10:34:16;;;;;;;8.75;6.38;;;;;;;25.28;86.88;98420.91;4842489;29;20130;-84
2023/06/19 10:37:00;;;;;;;9.60;7.55;;;;;;;25.44;86.92;98416.72;4843633;29;20177;-84
2023/06/19 10:39:44;;;;;;;8.30;6.57;;;;;;;25.47;85.94;98415.34;4844236;29;20461;-87
2023/06/19 10:42:28;;;;;;;11.13;6.95;;;;;;;25.76;88.07;98409.47;4829535;29;20068;-84
2023/06/19 10:45:16;;;;;;;7.93;6.28;;;;;;;25.95;87.24;98416.50;4843098;29;20052;-85
2023/06/19 10:48:04;;;;;;;12.43;7.25;;;;;;;26.21;84.91;98421.94;4841700;29;20048;-85
2023/06/19 10:50:50;;;;;;;10.75;7.68;;;;;;;26.52;86.09;98428.28;4841781;29;20130;-84
2023/06/19 10:53:34;;;;;;;10.82;6.88;;;;;;;26.73;84.38;98435.75;4841274;29;20101;-85
2023/06/19 10:56:20;;;;;;;7.22;5.85;;;;;;;26.61;81.23;98442.56;4828317;29;20093;-86
2023/06/19 10:59:11;;;;;;;13.48;7.07;;;;;;;26.51;83.10;98437.47;4829276;29;20118;-85
2023/06/19 11:01:55;;;;;;;7.88;5.93;;;;;;;26.45;78.86;98441.44;4826841;29;20052;-84
2023/06/19 11:04:39;;;;;;;9.18;5.97;;;;;;;26.82;78.33;98431.16;4843161;29;20102;-84
2023/06/19 11:07:23;;;;;;;9.60;5.55;;;;;;;26.80;78.89;98433.38;4843090;29;20544;-85
2023/06/19 11:10:19;;;;;;;8.23;6.00;;;;;;;27.09;79.64;98429.25;4829039;29;20077;-84
2023/06/19 11:13:03;;;;;;;8.75;6.18;;;;;;;26.87;80.49;98422.94;4842856;29;20075;-85
2023/06/19 11:15:49;;;;;;;7.18;5.40;;;;;;;27.13;80.06;98429.41;4836885;29;20445;-84
2023/06/19 11:18:33;;;;;;;8.30;6.35;;;;;;;27.37;76.56;98420.78;4842866;29;20644;-86
2023/06/19 11:21:17;;;;;;;9.02;5.80;;;;;;;27.40;77.74;98422.84;4842628;29;20049;-84
2023/06/19 11:24:01;;;;;;;6.95;4.75;;;;;;;27.66;75.31;98419.28;4833654;29;20044;-85
2023/06/19 11:26:50;;;;;;;7.47;5.68;;;;;;;27.31;74.34;98413.97;4842469;29;20057;-85
2023/06/19 11:29:35;;;;;;;6.53;5.50;;;;;;;27.38;71.97;98401.59;4842701;29;20078;-86
2023/06/19 11:32:24;;;;;;;7.63;5.93;;;;;;;27.72;71.64;98417.19;4839991;29;20080;-85
2023/06/19 11:35:12;;;;;;;9.68;5.65;;;;;;;28.12;72.29;98413.34;4828837;29;20079;-84
2023/06/19 11:37:59;;;;;;;7.57;5.72;;;;;;;28.45;71.71;98413.47;4826388;29;20128;-85
2023/06/19 11:40:45;;;;;;;8.48;6.43;;;;;;;28.59;72.35;98426.69;4842098;29;20539;-85
2023/06/19 11:43:34;;;;;;;9.73;6.70;;;;;;;28.76;72.11;98424.97;4827743;29;20170;-86
2023/06/19 11:46:21;;;;;;;9.70;6.40;;;;;;;28.51;74.25;98422.16;4819333;29;20041;-85
2023/06/19 11:49:12;;;;;;;8.20;6.22;;;;;;;28.38;70.49;98428.59;4841156;29;20076;-85
2023/06/19 11:51:56;;;;;;;8.75;6.13;;;;;;;27.81;72.35;98426.06;4842217;29;20048;-84
2023/06/19 11:54:40;;;;;;;9.27;6.55;;;;;;;27.73;74.59;98418.78;4842190;29;20102;-84
2023/06/19 11:57:26;;;;;;;7.18;6.15;;;;;;;27.70;71.11;98414.03;4842330;29;20045;-85
2023/06/19 12:00:16;;;;;;;7.63;6.03;;;;;;;27.70;72.48;98414.81;4842029;29;20138;-84
2023/06/19 12:03:00;;;;;;;8.10;5.50;;;;;;;27.58;73.64;98412.03;4840939;29;20053;-85
2023/06/19 12:05:44;;;;;;;7.35;5.35;;;;;;;27.56;73.30;98414.25;4828359;29;20049;-83
2023/06/19 12:08:29;;;;;;;6.30;5.70;;;;;;;27.60;74.04;98409.78;4840962;29;20053;-84
2023/06/19 12:11:13;;;;;;;7.13;5.43;;;;;;;27.87;73.00;98410.44;4841140;29;20194;-84
2023/06/19 12:13:57;;;;;;;6.63;5.55;;;;;;;27.87;69.04;98418.53;4841838;29;20182;-84
2023/06/19 12:16:41;;;;;;;7.38;6.07;;;;;;;28.01;69.11;98418.34;4842501;29;20106;-85
2023/06/19 12:19:27;;;;;;;10.27;6.47;;;;;;;28.27;68.13;98418.16;4828333;29;20207;-84
2023/06/19 12:22:11;;;;;;;7.30;5.93;;;;;;;28.59;68.42;98418.59;4840930;29;20520;-85
2023/06/19 12:24:55;;;;;;;8.05;5.57;;;;;;;29.03;66.82;98428.22;4842025;29;20101;-84
2023/06/19 12:27:39;;;;;;;7.72;6.28;;;;;;;29.18;66.54;98430.31;4833893;29;20556;-84
2023/06/19 12:30:24;;;;;;;7.93;6.55;;;;;;;29.16;65.72;98426.34;4834396;29;20155;-84
2023/06/19 12:33:09;;;;;;;8.63;6.53;;;;;;;29.54;66.92;98419.13;4841358;29;20550;-84
2023/06/19 12:35:53;;;;;;;8.85;6.78;;;;;;;29.59;66.03;98421.59;4841329;29;20102;-84
2023/06/19 12:38:38;;;;;;;8.95;6.90;;;;;;;30.02;65.63;98422.97;4827836;29;20045;-83